VHHH/HKG METAR and TAF weather

Enter ICAO airport designator
Station Type Date Time Source
VHHH METAR 2020/07/10 00:30 UTC NOAA

VHHH 100030Z 21012KT 9999 FEW012 30/25 Q1006 NOSIG


Station Type Date Time Source
VHHH Decoded METAR 2020/07/10 00:30 UTC NOAA

Hong Kong Inter-National Airport, Hong Kong (VHHH) 22-20N 114-11E 24M
Jul 09, 2020 - 08:30 PM EDT / 2020.07.10 0030 UTC
Wind: from the SSW (210 degrees) at 14 MPH (12 KT):0
Visibility: greater than 7 mile(s):0
Sky conditions: mostly clear
Temperature: 86 F (30 C)
Heat index: 96.8 F (36.0 C):1
Dew Point: 77 F (25 C)
Relative Humidity: 74%
Pressure (altimeter): 29.71 in. Hg (1006 hPa)
ob: VHHH 100030Z 21012KT 9999 FEW012 30/25 Q1006 NOSIG
cycle: 0

Station Type Date Time Source
VHHH TAF 2020/07/09 18:48 UTC NOAA

TAF VHHH 091700Z 0918/1024 20015KT 9999 FEW015 TX33/1006Z TN29/0922Z TN29/1022Z

Example: see airport list